Time;durP1;ratioP1;P1;durP2;ratioP2;P2;SDS_P1;SDS_P2;PMS_P1;PMS_P2;Temp;Humidity;BMP_temperature;BMP_pressure;BME280_temperature;BME280_humidity;BME280_pressure;Samples;Min_cycle;Max_cycle;Signal;HPM_P1;HPM_P2
2023/07/17 00:01:04;;;;;;;12.00;10.75;;;;;22.70;96904.00;;;;5050224;28;20413;-90
2023/07/17 00:03:53;;;;;;;11.27;10.10;;;;;22.70;96903.00;;;;5050967;28;20212;-90
2023/07/17 00:06:43;;;;;;;11.30;10.23;;;;;22.20;96906.00;;;;5050332;28;20236;-89
2023/07/17 00:09:34;;;;;;;9.63;8.73;;;;;22.50;96913.00;;;;5049613;28;20204;-88
2023/07/17 00:12:23;;;;;;;10.77;9.50;;;;;22.80;96911.00;;;;5050298;28;20266;-89
2023/07/17 00:15:12;;;;;;;10.10;9.20;;;;;23.00;96918.00;;;;5050676;28;20209;-89
2023/07/17 00:18:01;;;;;;;11.00;9.60;;;;;23.10;96912.00;;;;5053584;28;20197;-89
2023/07/17 00:20:50;;;;;;;11.33;10.13;;;;;22.90;96921.00;;;;5053737;28;20201;-89
2023/07/17 00:23:40;;;;;;;11.10;9.43;;;;;23.00;96913.00;;;;5052687;28;20196;-89
2023/07/17 00:26:31;;;;;;;12.27;9.37;;;;;23.30;96911.00;;;;5052728;28;20683;-89
2023/07/17 00:29:23;;;;;;;10.87;9.87;;;;;23.40;96907.00;;;;5051046;28;20211;-88
2023/07/17 00:32:12;;;;;;;13.23;9.77;;;;;23.40;96906.00;;;;5052484;28;20238;-89
2023/07/17 00:35:01;;;;;;;10.27;9.20;;;;;23.10;96912.00;;;;5053276;28;20204;-89
2023/07/17 00:37:50;;;;;;;11.13;9.97;;;;;22.80;96912.00;;;;5052366;28;20200;-89
2023/07/17 00:40:40;;;;;;;14.17;10.07;;;;;22.60;96899.00;;;;5051671;28;20435;-88
2023/07/17 00:43:30;;;;;;;12.18;11.05;;;;;22.20;96907.00;;;;5048447;28;20398;-89
2023/07/17 00:46:20;;;;;;;12.70;11.40;;;;;22.00;96910.00;;;;5044241;28;20761;-88
2023/07/17 00:49:10;;;;;;;12.80;10.43;;;;;22.60;96896.00;;;;5051757;28;20307;-89
2023/07/17 00:52:00;;;;;;;10.30;9.27;;;;;22.70;96904.00;;;;5050754;28;20228;-89
2023/07/17 00:54:49;;;;;;;12.17;9.47;;;;;22.90;96907.00;;;;5047738;28;20227;-88
2023/07/17 00:57:38;;;;;;;12.10;10.20;;;;;22.50;96904.00;;;;5048477;28;20203;-89
2023/07/17 01:00:29;;;;;;;12.13;9.13;;;;;22.50;96898.00;;;;5050434;28;20640;-89
2023/07/17 01:03:18;;;;;;;15.80;10.97;;;;;22.80;96905.00;;;;5046186;28;20189;-89
2023/07/17 01:06:08;;;;;;;11.00;9.60;;;;;22.90;96905.00;;;;5051342;28;20224;-89
2023/07/17 01:08:57;;;;;;;13.80;10.90;;;;;23.00;96900.00;;;;5048366;28;20201;-89
2023/07/17 01:11:46;;;;;;;15.60;9.63;;;;;22.60;96900.00;;;;5048716;28;20239;-89
2023/07/17 01:14:35;;;;;;;9.97;9.07;;;;;22.30;96902.00;;;;5048017;28;20196;-89
2023/07/17 01:17:26;;;;;;;12.73;10.50;;;;;22.10;96901.00;;;;5048705;28;20397;-89
2023/07/17 01:20:15;;;;;;;10.37;9.47;;;;;22.20;96904.00;;;;5048570;28;20204;-89
2023/07/17 01:23:05;;;;;;;12.70;9.90;;;;;22.10;96908.00;;;;5049496;28;20201;-88
2023/07/17 01:25:56;;;;;;;17.20;10.77;;;;;21.50;96902.00;;;;5049802;28;20814;-89
2023/07/17 01:28:45;;;;;;;12.87;9.83;;;;;21.70;96908.00;;;;5048470;28;20201;-88
2023/07/17 01:31:35;;;;;;;12.65;11.32;;;;;22.10;96905.00;;;;5048387;28;20405;-89
2023/07/17 01:34:24;;;;;;;13.15;11.85;;;;;22.20;96912.00;;;;5049181;28;20393;-88
2023/07/17 01:37:13;;;;;;;12.30;10.37;;;;;22.20;96911.00;;;;5045733;28;20223;-88
2023/07/17 01:40:05;;;;;;;12.55;11.45;;;;;21.80;96911.00;;;;5048056;28;20412;-89
2023/07/17 01:42:54;;;;;;;11.07;10.07;;;;;21.90;96902.00;;;;5047899;28;20193;-89
2023/07/17 01:45:43;;;;;;;12.17;10.20;;;;;21.90;96896.00;;;;5051161;28;20362;-89
2023/07/17 01:48:34;;;;;;;15.50;10.80;;;;;22.10;96909.00;;;;5052522;28;20204;-88
2023/07/17 01:51:23;;;;;;;10.70;9.63;;;;;22.30;96897.00;;;;5050323;28;20683;-89
2023/07/17 01:54:12;;;;;;;13.73;11.00;;;;;22.20;96909.00;;;;5054127;28;20205;-88
2023/07/17 01:57:03;;;;;;;10.67;9.67;;;;;21.30;96894.00;;;;5051560;28;20239;-87
2023/07/17 01:59:52;;;;;;;13.20;11.13;;;;;21.30;96901.00;;;;5052680;28;20211;-88
2023/07/17 02:02:41;;;;;;;12.80;10.50;;;;;21.50;96894.00;;;;5052234;28;20211;-88
2023/07/17 02:05:30;;;;;;;11.77;10.60;;;;;21.40;96897.00;;;;5051702;28;20208;-87
2023/07/17 02:08:20;;;;;;;10.33;9.33;;;;;21.20;96893.00;;;;5048670;28;20580;-89
2023/07/17 02:11:09;;;;;;;12.17;10.97;;;;;21.20;96896.00;;;;5052521;28;20226;-88
2023/07/17 02:13:59;;;;;;;15.47;11.60;;;;;21.30;96887.00;;;;5051765;28;20205;-88
2023/07/17 02:16:49;;;;;;;12.73;11.30;;;;;21.60;96890.00;;;;5052491;28;20212;-88
2023/07/17 02:19:38;;;;;;;15.40;13.13;;;;;21.90;96895.00;;;;5052904;28;20213;-89
2023/07/17 02:22:27;;;;;;;12.67;11.43;;;;;21.70;96889.00;;;;5049353;28;20711;-88
2023/07/17 02:25:17;;;;;;;12.60;11.40;;;;;21.90;96891.00;;;;5052722;28;20280;-87
2023/07/17 02:28:06;;;;;;;15.97;11.97;;;;;21.50;96902.00;;;;5052105;28;20204;-88
2023/07/17 02:30:56;;;;;;;17.07;10.90;;;;;21.60;96889.00;;;;5051611;28;20625;-88
2023/07/17 02:33:45;;;;;;;12.70;11.50;;;;;21.70;96883.00;;;;5052631;28;20286;-88
2023/07/17 02:36:37;;;;;;;16.20;11.60;;;;;21.40;96886.00;;;;5049621;28;20232;-87
2023/07/17 02:39:26;;;;;;;13.00;11.70;;;;;21.30;96889.00;;;;5049395;28;20281;-86
2023/07/17 02:42:15;;;;;;;12.23;11.07;;;;;21.20;96895.00;;;;5046671;28;20193;-88
2023/07/17 02:45:05;;;;;;;13.00;11.63;;;;;21.10;96887.00;;;;5050308;28;20559;-87
2023/07/17 02:47:56;;;;;;;12.20;10.93;;;;;21.20;96888.00;;;;5050676;28;20219;-87
2023/07/17 02:50:45;;;;;;;13.97;11.77;;;;;21.20;96890.00;;;;5050272;28;20192;-88
2023/07/17 02:53:34;;;;;;;12.40;11.23;;;;;21.10;96893.00;;;;5049876;28;20240;-88
2023/07/17 02:56:23;;;;;;;15.17;12.17;;;;;21.10;96891.00;;;;5051442;28;20224;-87
2023/07/17 02:59:12;;;;;;;12.73;10.83;;;;;20.90;96893.00;;;;5050845;28;20201;-87
2023/07/17 03:02:01;;;;;;;13.03;11.73;;;;;21.00;96892.00;;;;5049343;28;20245;-88
2023/07/17 03:04:52;;;;;;;13.33;12.03;;;;;20.90;96904.00;;;;5048549;28;20295;-88
2023/07/17 03:07:42;;;;;;;13.40;12.00;;;;;21.00;96886.00;;;;5051500;28;20205;-88
2023/07/17 03:10:32;;;;;;;13.03;11.73;;;;;21.20;96891.00;;;;5050431;28;20671;-88
2023/07/17 03:13:21;;;;;;;14.50;12.60;;;;;21.40;96899.00;;;;5052812;28;20223;-88
2023/07/17 03:16:10;;;;;;;13.20;12.03;;;;;21.40;96905.00;;;;5051363;28;20699;-89
2023/07/17 03:18:59;;;;;;;13.97;12.37;;;;;21.30;96907.00;;;;5051350;28;20216;-89
2023/07/17 03:21:50;;;;;;;12.00;10.80;;;;;21.40;96905.00;;;;5053230;28;20207;-90
2023/07/17 03:24:39;;;;;;;15.07;12.97;;;;;21.50;96903.00;;;;5052165;28;20196;-89
2023/07/17 03:27:28;;;;;;;13.57;11.13;;;;;21.60;96901.00;;;;5053250;28;20220;-88
2023/07/17 03:30:18;;;;;;;12.83;10.80;;;;;21.60;96907.00;;;;5048488;28;20201;-89
2023/07/17 03:33:07;;;;;;;13.40;12.10;;;;;21.60;96904.00;;;;5053398;28;20224;-90
2023/07/17 03:35:56;;;;;;;13.23;11.20;;;;;21.30;96913.00;;;;5053033;28;20224;-89
2023/07/17 03:38:46;;;;;;;13.83;11.13;;;;;21.40;96907.00;;;;5052535;28;20212;-89
2023/07/17 03:41:35;;;;;;;13.60;11.83;;;;;21.50;96907.00;;;;5051880;28;20203;-89
2023/07/17 03:44:25;;;;;;;14.80;10.83;;;;;21.40;96913.00;;;;5054055;28;20204;-88
2023/07/17 03:47:16;;;;;;;13.60;12.37;;;;;21.40;96907.00;;;;5052508;28;20234;-89
2023/07/17 03:50:06;;;;;;;13.40;12.10;;;;;21.30;96916.00;;;;5049164;28;20402;-89
2023/07/17 03:52:55;;;;;;;13.43;12.07;;;;;21.30;96903.00;;;;5050123;28;20220;-89
2023/07/17 03:55:46;;;;;;;11.87;10.57;;;;;21.50;96909.00;;;;5051446;28;20220;-88
2023/07/17 03:58:35;;;;;;;13.83;12.43;;;;;21.50;96906.00;;;;5049611;28;20204;-89
2023/07/17 04:01:24;;;;;;;12.17;11.07;;;;;21.80;96908.00;;;;5047071;28;20553;-89
2023/07/17 04:04:13;;;;;;;13.07;11.77;;;;;21.90;96900.00;;;;5049682;28;20200;-89
2023/07/17 04:07:02;;;;;;;12.47;11.20;;;;;21.80;96904.00;;;;5053541;28;20224;-88
2023/07/17 04:09:51;;;;;;;12.93;11.60;;;;;21.60;96898.00;;;;5052684;28;20197;-88
2023/07/17 04:12:42;;;;;;;14.73;11.97;;;;;21.20;96901.00;;;;5051160;28;20216;-87
2023/07/17 04:15:31;;;;;;;15.53;11.03;;;;;21.50;96914.00;;;;5049437;28;20586;-89
2023/07/17 04:18:21;;;;;;;13.03;10.77;;;;;21.70;96908.00;;;;5051730;28;20659;-89
2023/07/17 04:21:10;;;;;;;12.47;11.17;;;;;21.70;96900.00;;;;5050524;28;20203;-88
2023/07/17 04:23:59;;;;;;;12.23;11.00;;;;;21.50;96907.00;;;;5046769;28;20200;-87
2023/07/17 04:26:50;;;;;;;13.73;11.57;;;;;21.50;96900.00;;;;5049168;28;20286;-89
2023/07/17 04:29:40;;;;;;;14.73;11.30;;;;;21.60;96911.00;;;;5051999;28;20254;-89
2023/07/17 04:32:30;;;;;;;14.90;11.83;;;;;21.80;96906.00;;;;5051616;28;20239;-89
2023/07/17 04:35:19;;;;;;;12.73;10.73;;;;;21.80;96924.00;;;;5047904;28;20266;-87
2023/07/17 04:38:08;;;;;;;12.47;11.20;;;;;21.80;96904.00;;;;5049227;28;20759;-90
2023/07/17 04:40:57;;;;;;;12.83;11.63;;;;;21.60;96914.00;;;;5048296;28;20596;-88
2023/07/17 04:43:46;;;;;;;11.93;10.73;;;;;21.70;96907.00;;;;5050686;28;20197;-88
2023/07/17 04:46:37;;;;;;;11.70;10.53;;;;;21.70;96917.00;;;;5050425;28;20667;-88
2023/07/17 04:49:26;;;;;;;12.67;11.03;;;;;22.30;96922.00;;;;5048218;28;20205;-89
2023/07/17 04:52:15;;;;;;;12.63;11.20;;;;;22.70;96927.00;;;;5047055;28;20223;-89
2023/07/17 04:55:05;;;;;;;13.33;11.13;;;;;22.80;96926.00;;;;5050334;28;20205;-89
2023/07/17 04:57:55;;;;;;;12.13;10.93;;;;;22.90;96923.00;;;;5048504;28;20204;-89
2023/07/17 05:00:46;;;;;;;11.57;10.37;;;;;23.00;96922.00;;;;5048470;23;20240;-73
2023/07/17 05:03:36;;;;;;;11.40;10.20;;;;;23.10;96915.00;;;;5026151;28;20263;-73
2023/07/17 05:06:26;;;;;;;12.83;11.03;;;;;23.10;96914.00;;;;5030898;28;20217;-73
2023/07/17 05:09:15;;;;;;;11.27;9.63;;;;;22.90;96917.00;;;;5025909;28;20687;-73
2023/07/17 05:12:05;;;;;;;11.47;9.70;;;;;23.00;96915.00;;;;5026386;28;20217;-73
2023/07/17 05:14:54;;;;;;;14.73;9.30;;;;;23.30;96913.00;;;;5025592;28;20212;-73
2023/07/17 05:17:43;;;;;;;11.77;10.50;;;;;23.50;96912.00;;;;5027957;28;20212;-72
2023/07/17 05:20:34;;;;;;;11.87;10.33;;;;;23.50;96906.00;;;;5027621;28;20208;-73
2023/07/17 05:23:23;;;;;;;13.87;11.43;;;;;23.50;96913.00;;;;5031151;28;20229;-73
2023/07/17 05:26:12;;;;;;;12.03;10.83;;;;;23.30;96903.00;;;;5031360;28;20282;-73
2023/07/17 05:29:01;;;;;;;12.67;11.37;;;;;23.40;96908.00;;;;5031407;28;20201;-72
2023/07/17 05:31:50;;;;;;;13.00;10.60;;;;;23.70;96907.00;;;;5030031;28;20201;-73
2023/07/17 05:34:39;;;;;;;12.50;11.30;;;;;24.00;96907.00;;;;5031261;28;20203;-73
2023/07/17 05:37:29;;;;;;;11.90;10.70;;;;;24.20;96918.00;;;;5031208;28;20228;-72
2023/07/17 05:40:18;;;;;;;13.03;11.83;;;;;24.10;96913.00;;;;5025338;28;20209;-72
2023/07/17 05:43:08;;;;;;;12.07;10.57;;;;;24.10;96913.00;;;;5029434;28;20202;-72
2023/07/17 05:45:57;;;;;;;12.83;10.77;;;;;24.20;96908.00;;;;5029815;28;20213;-71
2023/07/17 05:48:47;;;;;;;13.53;12.10;;;;;24.50;96909.00;;;;5031447;28;20220;-72
2023/07/17 05:51:36;;;;;;;11.97;10.77;;;;;24.80;96915.00;;;;5027779;28;20201;-72
2023/07/17 05:54:26;;;;;;;13.73;12.23;;;;;25.10;96907.00;;;;5029264;28;20201;-72
2023/07/17 05:57:15;;;;;;;15.37;10.90;;;;;25.50;96914.00;;;;5030241;28;20221;-72
2023/07/17 06:00:06;;;;;;;15.07;11.27;;;;;25.70;96923.00;;;;5030722;28;20225;-71
2023/07/17 06:02:56;;;;;;;12.00;10.57;;;;;25.50;96924.00;;;;5030547;28;20273;-72
2023/07/17 06:05:45;;;;;;;13.17;10.67;;;;;25.50;96923.00;;;;5029511;28;20224;-72
2023/07/17 06:08:34;;;;;;;15.40;12.50;;;;;25.20;96921.00;;;;5029449;28;20213;-72
2023/07/17 06:11:25;;;;;;;14.73;10.67;;;;;25.30;96922.00;;;;5024884;28;20197;-71
2023/07/17 06:14:14;;;;;;;11.57;10.23;;;;;25.50;96932.00;;;;5025850;28;20201;-71
2023/07/17 06:17:03;;;;;;;12.63;11.23;;;;;26.30;96924.00;;;;5029499;28;20233;-72
2023/07/17 06:19:52;;;;;;;12.87;11.00;;;;;26.20;96930.00;;;;5027103;28;20626;-71
2023/07/17 06:22:41;;;;;;;11.13;10.03;;;;;26.50;96929.00;;;;5026226;28;20212;-72
2023/07/17 06:25:30;;;;;;;11.80;10.60;;;;;27.10;96937.00;;;;5031655;28;20235;-72
2023/07/17 06:28:21;;;;;;;12.93;10.43;;;;;27.30;96933.00;;;;5018963;28;20209;-72
2023/07/17 06:31:10;;;;;;;13.90;9.87;;;;;27.00;96942.00;;;;5026222;28;20958;-72
2023/07/17 06:33:59;;;;;;;10.63;9.73;;;;;27.20;96937.00;;;;5033127;28;20271;-72
2023/07/17 06:36:50;;;;;;;11.67;9.83;;;;;27.40;96939.00;;;;5026012;28;20245;-72
2023/07/17 06:39:39;;;;;;;12.73;9.97;;;;;27.80;96943.00;;;;5037522;28;20206;-72
2023/07/17 06:42:30;;;;;;;10.27;9.30;;;;;28.10;96929.00;;;;5033452;28;20548;-72
2023/07/17 06:45:20;;;;;;;13.60;10.43;;;;;28.00;96940.00;;;;5039584;28;20224;-72
2023/07/17 06:48:09;;;;;;;13.03;9.67;;;;;28.20;96935.00;;;;5026831;28;20198;-72
2023/07/17 06:50:59;;;;;;;11.47;10.30;;;;;28.30;96936.00;;;;5018740;28;20212;-72
2023/07/17 06:53:48;;;;;;;10.90;9.27;;;;;28.30;96934.00;;;;5030054;28;20293;-72
2023/07/17 06:56:37;;;;;;;11.37;9.53;;;;;28.80;96932.00;;;;5023543;28;20709;-72
2023/07/17 06:59:28;;;;;;;9.57;8.60;;;;;29.10;96933.00;;;;5021466;28;20216;-72
2023/07/17 07:02:19;;;;;;;10.67;9.40;;;;;29.30;96934.00;;;;5022182;28;20651;-72
2023/07/17 07:05:08;;;;;;;9.80;8.27;;;;;29.30;96935.00;;;;5024270;28;20230;-72
2023/07/17 07:07:57;;;;;;;10.57;9.13;;;;;29.40;96926.00;;;;5013448;28;20699;-73
2023/07/17 07:10:46;;;;;;;9.73;8.83;;;;;29.50;96941.00;;;;5029445;28;20205;-72
2023/07/17 07:13:36;;;;;;;9.33;8.30;;;;;29.60;96936.00;;;;5029956;28;20227;-72
2023/07/17 07:16:25;;;;;;;10.60;9.07;;;;;29.80;96931.00;;;;5026132;28;20716;-72
2023/07/17 07:19:15;;;;;;;10.43;9.50;;;;;29.90;96929.00;;;;5025864;28;20207;-72
2023/07/17 07:22:05;;;;;;;13.80;9.13;;;;;30.10;96930.00;;;;5023524;28;20217;-72
2023/07/17 07:24:54;;;;;;;11.40;9.17;;;;;30.10;96931.00;;;;5028314;28;20260;-71
2023/07/17 07:27:43;;;;;;;12.20;9.20;;;;;30.20;96925.00;;;;5028669;28;20202;-72
2023/07/17 07:30:32;;;;;;;10.97;8.53;;;;;30.40;96934.00;;;;5026577;28;20209;-72
2023/07/17 07:33:21;;;;;;;9.80;8.57;;;;;30.50;96938.00;;;;5023810;28;20204;-72
2023/07/17 07:36:11;;;;;;;9.97;7.43;;;;;30.60;96938.00;;;;5032671;28;20227;-72
2023/07/17 07:39:05;;;;;;;9.03;8.13;;;;;30.70;96938.00;;;;5018696;28;20721;-73
2023/07/17 07:41:54;;;;;;;10.90;7.90;;;;;30.80;96936.00;;;;5025367;28;20269;-72
2023/07/17 07:44:43;;;;;;;8.20;7.53;;;;;31.10;96940.00;;;;5027973;28;20234;-72
2023/07/17 07:47:32;;;;;;;8.77;7.83;;;;;31.40;96946.00;;;;5023823;28;20258;-72
2023/07/17 07:50:22;;;;;;;11.13;8.70;;;;;31.50;96947.00;;;;5029291;28;20256;-72
2023/07/17 07:53:13;;;;;;;10.03;8.60;;;;;31.60;96944.00;;;;5027868;28;20208;-72
2023/07/17 07:56:02;;;;;;;8.17;7.43;;;;;31.80;96955.00;;;;5026916;28;20229;-72
2023/07/17 07:58:51;;;;;;;9.40;7.87;;;;;31.90;96960.00;;;;5022668;28;20208;-73
2023/07/17 08:01:40;;;;;;;10.65;7.45;;;;;32.00;96959.00;;;;5020750;28;20214;-72
2023/07/17 08:04:30;;;;;;;9.02;7.57;;;;;32.20;96951.00;;;;5027494;28;20238;-72
2023/07/17 08:07:19;;;;;;;11.90;8.40;;;;;32.20;96949.00;;;;5035252;28;20663;-72
2023/07/17 08:10:10;;;;;;;9.15;7.57;;;;;32.30;96960.00;;;;5034598;28;20220;-72
2023/07/17 08:12:59;;;;;;;11.43;7.05;;;;;32.50;96963.00;;;;5027434;28;20672;-72
2023/07/17 08:15:49;;;;;;;8.65;7.85;;;;;32.70;96969.00;;;;5028564;28;20849;-73
2023/07/17 08:18:38;;;;;;;10.38;7.22;;;;;33.00;96960.00;;;;5022752;28;20209;-73
2023/07/17 08:21:27;;;;;;;7.95;7.25;;;;;33.10;96964.00;;;;5024159;28;20212;-72
2023/07/17 08:24:19;;;;;;;7.82;7.07;;;;;32.90;96973.00;;;;5022996;28;20627;-72
2023/07/17 08:27:09;;;;;;;8.25;7.13;;;;;33.00;96970.00;;;;5027254;28;20781;-73
2023/07/17 08:29:59;;;;;;;7.95;6.72;;;;;33.30;96968.00;;;;5028061;28;20562;-73
2023/07/17 08:32:48;;;;;;;7.32;6.45;;;;;33.00;96976.00;;;;5024640;28;20204;-72
2023/07/17 08:35:37;;;;;;;8.13;7.32;;;;;32.40;96971.00;;;;5037475;23;20219;-85
2023/07/17 08:38:26;;;;;;;7.85;7.07;;;;;33.00;96958.00;;;;5025749;28;20702;-84
2023/07/17 08:41:15;;;;;;;8.65;7.95;;;;;33.40;96965.00;;;;5016380;28;20223;-85
2023/07/17 08:44:06;;;;;;;12.63;7.53;;;;;32.60;96958.00;;;;5021988;28;20208;-85
2023/07/17 08:46:55;;;;;;;8.93;8.05;;;;;32.60;96956.00;;;;5022686;28;20270;-85
2023/07/17 08:49:45;;;;;;;8.13;7.28;;;;;33.40;96962.00;;;;5026419;28;20921;-85
2023/07/17 08:52:34;;;;;;;11.07;7.88;;;;;32.70;96964.00;;;;5016381;28;20204;-86
2023/07/17 08:55:23;;;;;;;9.25;8.35;;;;;33.30;96975.00;;;;5014650;28;20210;-85
2023/07/17 08:58:12;;;;;;;9.70;8.68;;;;;33.80;96978.00;;;;5028581;28;20208;-85
2023/07/17 09:01:03;;;;;;;8.63;7.75;;;;;33.70;96972.00;;;;5021422;28;20229;-86
2023/07/17 09:03:53;;;;;;;9.43;8.40;;;;;34.10;96970.00;;;;5010972;28;20194;-86
2023/07/17 09:06:42;;;;;;;8.02;7.30;;;;;34.60;96970.00;;;;5021924;28;20203;-86
2023/07/17 09:09:31;;;;;;;10.05;7.88;;;;;34.70;96967.00;;;;5020064;28;20208;-85
2023/07/17 09:12:21;;;;;;;8.45;7.60;;;;;34.90;96960.00;;;;5028039;28;20272;-86
2023/07/17 09:15:13;;;;;;;14.20;8.20;;;;;35.00;96966.00;;;;5025775;28;20220;-86
2023/07/17 09:18:04;;;;;;;8.82;7.93;;;;;34.90;96973.00;;;;5021197;28;20220;-85
2023/07/17 09:21:02;;;;;;;8.50;7.68;;;;;34.50;96976.00;;;;5020365;28;20652;-85
2023/07/17 09:23:53;;;;;;;9.20;7.55;;;;;35.10;96965.00;;;;5008728;28;20213;-86
2023/07/17 09:26:42;;;;;;;8.80;7.97;;;;;35.60;96971.00;;;;5027929;28;20719;-85
2023/07/17 09:29:31;;;;;;;8.88;8.07;;;;;35.60;96968.00;;;;5021612;28;20213;-85
2023/07/17 09:32:22;;;;;;;7.68;7.07;;;;;35.70;96967.00;;;;5025714;28;20691;-85
2023/07/17 09:35:12;;;;;;;10.05;7.72;;;;;35.80;96956.00;;;;5020218;28;20696;-84
2023/07/17 09:38:01;;;;;;;8.10;7.40;;;;;35.60;96962.00;;;;5018986;28;20197;-85
2023/07/17 09:40:50;;;;;;;8.68;7.88;;;;;36.10;96971.00;;;;5017081;28;20225;-87
2023/07/17 09:43:40;;;;;;;8.48;7.68;;;;;36.10;96963.00;;;;5020149;28;20206;-86
2023/07/17 09:46:29;;;;;;;8.60;7.70;;;;;36.80;96960.00;;;;5024459;28;20197;-87
2023/07/17 09:49:19;;;;;;;8.82;7.82;;;33.50;99.90;37.10;96951.00;;;;5015747;28;20253;-86
2023/07/17 09:52:14;;;;;;;7.13;6.35;;;33.50;99.60;36.90;96960.00;;;;5026700;28;20231;-86
2023/07/17 09:55:04;;;;;;;8.40;7.25;;;33.70;99.90;36.50;96948.00;;;;5025137;28;20194;-86
2023/07/17 09:57:59;;;;;;;8.80;7.90;;;33.80;99.90;36.30;96953.00;;;;5016671;28;20197;-85
2023/07/17 10:00:49;;;;;;;8.95;8.07;;;33.70;98.50;35.50;96958.00;;;;5014604;28;20228;-85
2023/07/17 10:03:39;;;;;;;8.20;7.40;;;33.20;97.50;35.00;96967.00;;;;5011027;28;20201;-83
2023/07/17 10:06:28;;;;;;;9.52;8.55;;;33.00;97.30;35.30;96932.00;;;;5015732;28;20225;-85
2023/07/17 10:09:21;;;;;;;7.85;7.20;;;32.80;98.40;36.60;96947.00;;;;5014698;28;20685;-85
2023/07/17 10:12:11;;;;;;;7.82;7.05;;;33.00;99.50;35.80;96977.00;;;;5022158;28;20278;-85
2023/07/17 10:15:01;;;;;;;7.70;6.60;;;33.00;98.00;35.80;96964.00;;;;5017613;28;20197;-85
2023/07/17 10:17:57;;;;;;;7.55;6.60;;;32.90;97.60;36.50;96937.00;;;;5023726;28;20213;-85
2023/07/17 10:20:54;;;;;;;8.65;7.72;;;33.10;97.80;36.30;96936.00;;;;5019394;28;20230;-86
2023/07/17 10:23:44;;;;;;;7.32;6.35;;;33.40;99.00;36.10;96965.00;;;;5014939;28;20197;-86
2023/07/17 10:26:37;;;;;;;7.95;7.30;;;33.40;98.60;36.80;96935.00;;;;5011583;28;20208;-85
2023/07/17 10:29:33;;;;;;;13.82;7.05;;;33.50;98.30;36.90;96935.00;;;;5015338;28;20210;-85
2023/07/17 10:32:22;;;;;;;9.45;7.25;;;33.70;96.50;37.40;96940.00;;;;5015477;28;20205;-85
2023/07/17 10:35:20;;;;;;;8.07;7.38;;;33.90;97.50;37.90;96926.00;;;;5011075;28;20348;-85
2023/07/17 10:38:10;;;;;;;9.13;6.95;;;34.20;96.20;37.70;96926.00;;;;5015376;28;20217;-85
2023/07/17 10:41:04;;;;;;;6.90;6.20;;;34.40;94.80;35.90;96945.00;;;;5013358;28;20222;-84
2023/07/17 10:43:57;;;;;;;9.73;7.50;;;34.00;92.80;36.20;96965.00;;;;5015790;28;20201;-84
2023/07/17 10:46:58;;;;;;;8.82;7.05;;;33.60;94.00;35.80;96958.00;;;;5019339;28;20206;-85
2023/07/17 10:49:51;;;;;;;7.65;7.00;;;33.40;95.20;34.70;96952.00;;;;5026779;28;20226;-85
2023/07/17 10:52:40;;;;;;;7.97;7.28;;;33.00;95.10;34.30;96963.00;;;;5020446;28;20202;-85
2023/07/17 10:55:29;;;;;;;10.98;8.45;;;32.60;95.60;34.40;96963.00;;;;5019227;28;20204;-85
2023/07/17 10:58:20;;;;;;;7.85;7.05;;;32.30;97.00;34.10;96954.00;;;;5022925;28;20678;-84
2023/07/17 11:01:13;;;;;;;7.80;7.13;;;31.90;97.90;33.60;96959.00;;;;5014197;28;20446;-87
2023/07/17 11:04:02;;;;;;;10.68;8.32;;;31.60;99.70;32.80;96965.00;;;;5023789;28;20207;-87
2023/07/17 11:06:51;;;;;;;9.63;7.57;;;31.20;99.90;31.50;96969.00;;;;5016132;28;20295;-86
2023/07/17 11:09:45;;;;;;;10.38;8.57;;;;;31.20;96985.00;;;;5012691;28;20200;-87
2023/07/17 11:12:34;;;;;;;10.35;9.35;;;;;31.00;97013.00;;;;5009991;28;20707;-87
2023/07/17 11:15:23;;;;;;;10.77;8.07;;;;;30.20;97025.00;;;;5021383;28;20204;-86
2023/07/17 11:18:14;;;;;;;6.38;5.78;;;;;29.70;96996.00;;;;5023824;28;20773;-85
2023/07/17 11:21:03;;;;;;;7.87;7.03;;;;;29.80;96996.00;;;;5025881;28;20225;-84
2023/07/17 11:23:54;;;;;;;7.53;6.50;;;;;29.30;97012.00;;;;5023628;28;20732;-84
2023/07/17 11:26:43;;;;;;;6.70;6.10;;;;;29.00;97040.00;;;;5023221;28;20219;-85
2023/07/17 11:29:40;;;;;;;7.93;5.77;;;27.50;99.90;28.80;97046.00;;;;5011866;28;20207;-85
2023/07/17 11:32:31;;;;;;;7.97;5.43;;;27.60;99.90;28.70;97071.00;;;;5019143;28;20254;-84
2023/07/17 11:35:21;;;;;;;9.60;6.37;;;27.00;99.90;28.20;97100.00;;;;5014391;28;20301;-83
2023/07/17 11:38:15;;;;;;;12.97;7.07;;;26.70;99.90;27.80;97078.00;;;;5018939;28;20233;-89
2023/07/17 11:41:04;;;;;;;9.00;5.97;;;;;28.40;97022.00;;;;5011034;28;20229;-88
2023/07/17 11:43:58;;;;;;;5.67;4.43;;;;;29.50;96972.00;;;;5006977;28;20203;-86
2023/07/17 11:46:47;;;;;;;8.35;5.25;;;;;30.10;96954.00;;;;5003563;28;20206;-87
2023/07/17 11:49:39;;;;;;;5.07;4.67;;;;;30.70;96953.00;;;;5002129;28;20411;-87
2023/07/17 11:52:33;;;;;;;5.33;4.87;;;;;30.80;96950.00;;;;5007718;28;20213;-87
2023/07/17 11:55:22;;;;;;;6.50;4.53;;;;;31.10;96944.00;;;;5009519;28;20222;-88
2023/07/17 11:58:16;;;;;;;6.03;4.27;;;;;32.50;96936.00;;;;5008721;28;20222;-88
2023/07/17 12:01:05;;;;;;;4.53;4.13;;;;;33.50;96937.00;;;;5007999;28;20233;-90
2023/07/17 12:03:55;;;;;;;5.55;4.15;;;;;34.00;96939.00;;;;5018585;28;20232;-90
2023/07/17 12:06:57;;;;;;;7.38;4.30;;;;;34.60;96956.00;;;;5009807;28;21247;-90
2023/07/17 12:10:02;;;;;;;4.18;3.72;;;;;35.10;96970.00;;;;5014214;28;20711;-91
2023/07/17 12:12:52;;;;;;;6.78;4.45;;;;;35.70;96987.00;;;;5015720;28;20218;-90
2023/07/17 12:15:42;;;;;;;6.60;3.58;;;;;35.50;97030.00;;;;5015728;28;20204;-90
2023/07/17 12:18:31;;;;;;;5.22;3.70;;;;;34.30;97038.00;;;;5011787;28;20233;-89
2023/07/17 12:21:21;;;;;;;20.75;4.65;;;;;32.50;97030.00;;;;5016745;28;20235;-89
2023/07/17 12:24:14;;;;;;;3.63;3.33;;;;;31.70;97022.00;;;;5009081;28;20221;-89
2023/07/17 12:27:07;;;;;;;4.80;3.58;;;;;31.00;97019.00;;;;5013967;28;20208;-89
2023/07/17 12:29:57;;;;;;;4.05;3.75;;;;;31.30;96956.00;;;;5008411;28;20231;-89
2023/07/17 12:32:47;;;;;;;3.88;3.58;;;;;33.20;96967.00;;;;5012717;28;20215;-90
2023/07/17 12:35:37;;;;;;;5.82;3.70;;;;;32.80;96993.00;;;;5019925;28;20631;-91
2023/07/17 12:38:26;;;;;;;4.43;3.72;;;;;32.40;97032.00;;;;5018168;28;20227;-91
2023/07/17 12:41:16;;;;;;;3.58;3.28;;;;;32.60;97030.00;;;;5022850;28;20608;-91
2023/07/17 12:44:09;;;;;;;5.63;3.50;;;;;32.60;97032.00;;;;5020927;28;20241;-91
2023/07/17 12:46:59;;;;;;;6.35;4.32;;;;;32.60;97024.00;;;;5018029;28;20196;-91
2023/07/17 12:49:50;;;;;;;4.00;3.70;;;;;31.40;97030.00;;;;5018389;28;20243;-91
2023/07/17 12:52:40;;;;;;;4.18;3.85;;;;;32.20;96996.00;;;;5017182;28;20206;-91
2023/07/17 12:55:29;;;;;;;5.80;3.65;;;;;31.60;97016.00;;;;5020476;28;20214;-90
2023/07/17 12:58:19;;;;;;;4.03;3.65;;;;;32.40;96954.00;;;;5007642;28;20236;-90
2023/07/17 13:01:10;;;;;;;3.88;3.53;;;;;33.40;96993.00;;;;5024877;28;20283;-91
2023/07/17 13:03:59;;;;;;;6.32;4.40;;;;;34.80;96978.00;;;;5011955;28;20212;-89
2023/07/17 13:06:49;;;;;;;5.28;4.07;;;;;35.20;96978.00;;;;5015177;28;21057;-90
2023/07/17 13:09:39;;;;;;;7.53;4.10;;;;;36.20;96973.00;;;;5028395;28;20209;-90
2023/07/17 13:12:28;;;;;;;4.07;3.60;;;32.50;99.90;35.50;96974.00;;;;5007098;28;20229;-90
2023/07/17 13:15:22;;;;;;;4.90;4.40;;;32.50;99.90;34.80;96971.00;;;;5022463;28;20201;-89
2023/07/17 13:18:13;;;;;;;7.25;4.32;;;32.70;99.90;36.30;96975.00;;;;5022804;28;20232;-90
2023/07/17 13:21:04;;;;;;;6.80;3.83;;;32.90;99.90;37.10;96966.00;;;;5016756;28;20728;-90
2023/07/17 13:23:55;;;;;;;3.97;3.67;;;33.20;99.90;37.20;96973.00;;;;5006662;28;20210;-89
2023/07/17 13:26:45;;;;;;;4.80;3.47;;;33.60;99.90;37.60;96980.00;;;;5027539;28;20197;-90
2023/07/17 13:29:34;;;;;;;5.28;3.50;;;33.90;99.90;38.00;96989.00;;;;5017245;28;20205;-90
2023/07/17 13:32:24;;;;;;;5.82;3.17;;;34.20;99.90;38.10;96982.00;;;;5018998;28;20683;-90
2023/07/17 13:35:14;;;;;;;6.38;3.80;;;34.40;99.90;38.00;96989.00;;;;5013716;28;20206;-90
2023/07/17 13:38:03;;;;;;;6.32;3.70;;;34.80;99.90;38.60;96987.00;;;;5013350;28;20221;-89
2023/07/17 13:40:52;;;;;;;3.65;3.22;;;35.00;99.90;38.80;96988.00;;;;5009725;28;20267;-90
2023/07/17 13:43:41;;;;;;;6.40;2.78;;;35.30;99.90;39.00;97001.00;;;;5012025;28;20217;-91